createdAt,value
2017-06-09T16:38:30.167Z,16.53
2017-06-09T16:39:45.660Z,16.59
2017-06-09T16:41:01.198Z,16.56
2017-06-09T16:42:16.677Z,16.51
2017-06-09T16:43:32.490Z,16.66
2017-06-09T16:44:48.007Z,16.69
2017-06-09T16:46:03.748Z,16.68
2017-06-09T16:47:19.248Z,16.68
2017-06-09T16:48:34.903Z,16.71
2017-06-09T16:49:50.445Z,16.74
2017-06-09T16:51:05.940Z,16.68
2017-06-09T16:52:20.015Z,16.62
2017-06-09T16:53:35.746Z,16.64
2017-06-09T16:54:51.000Z,16.51
2017-06-09T16:56:06.523Z,16.65
2017-06-09T16:57:21.958Z,16.64
2017-06-09T16:58:37.662Z,16.71
2017-06-09T16:59:50.435Z,16.64
2017-06-09T17:01:05.943Z,16.57
2017-06-09T17:02:21.466Z,16.57
2017-06-09T17:03:37.098Z,16.49
2017-06-09T17:04:52.609Z,16.56
2017-06-09T17:06:08.074Z,16.47
2017-06-09T17:07:23.586Z,16.5
2017-06-09T17:08:39.547Z,16.5
2017-06-09T17:09:52.404Z,16.47
2017-06-09T17:11:07.930Z,16.51
2017-06-09T17:12:23.495Z,16.44
2017-06-09T17:13:39.396Z,16.53
2017-06-09T17:14:54.882Z,16.53
2017-06-09T17:16:10.429Z,16.62
2017-06-09T17:17:25.892Z,16.54
2017-06-09T17:18:40.225Z,16.51
2017-06-09T17:19:54.509Z,16.64
2017-06-09T17:21:10.027Z,16.62
2017-06-09T17:22:25.631Z,16.69
2017-06-09T17:23:40.128Z,16.68
2017-06-09T17:24:55.620Z,16.66
2017-06-09T17:26:09.672Z,16.64
2017-06-09T17:27:25.340Z,16.54
2017-06-09T17:28:41.116Z,16.56
2017-06-09T17:29:56.617Z,16.59
2017-06-09T17:31:12.287Z,16.61
2017-06-09T17:32:27.815Z,16.56
2017-06-09T17:33:43.475Z,16.49
2017-06-09T17:34:58.986Z,16.61
2017-06-09T17:36:14.558Z,16.59
2017-06-09T17:37:30.009Z,16.5
2017-06-09T17:38:45.733Z,16.49
2017-06-09T17:40:01.366Z,16.47
2017-06-09T17:41:16.895Z,16.47
2017-06-09T17:42:32.334Z,16.36
2017-06-09T17:43:48.024Z,16.5
2017-06-09T17:45:03.470Z,16.39
2017-06-09T17:46:19.066Z,16.51
2017-06-09T17:47:34.552Z,16.49
2017-06-09T17:48:50.313Z,16.51
2017-06-09T17:50:05.813Z,16.46
2017-06-09T17:51:21.332Z,16.44
2017-06-09T17:52:36.772Z,16.43
2017-06-09T17:53:52.472Z,16.47
2017-06-09T17:55:07.996Z,16.51
2017-06-09T17:56:23.078Z,16.44
2017-06-09T17:57:38.543Z,16.53
2017-06-09T17:58:54.210Z,16.43
2017-06-09T18:00:09.732Z,16.34
2017-06-09T18:01:25.252Z,16.43
2017-06-09T18:02:39.289Z,16.42
2017-06-09T18:03:54.985Z,16.43
2017-06-09T18:05:10.722Z,16.42
2017-06-09T18:06:26.134Z,16.39
2017-06-09T18:07:41.642Z,16.43
2017-06-09T18:08:56.132Z,16.43
2017-06-09T18:10:11.884Z,16.38
2017-06-09T18:11:27.402Z,16.38
2017-06-09T18:12:42.878Z,16.38
2017-06-09T18:13:58.774Z,16.43
2017-06-09T18:15:14.471Z,16.47
2017-06-09T18:16:30.013Z,16.39
2017-06-09T18:17:45.496Z,16.43
2017-06-09T18:18:59.861Z,16.43
2017-06-09T18:20:15.429Z,16.38
2017-06-09T18:21:30.923Z,16.47
2017-06-09T18:22:46.395Z,16.53
2017-06-09T18:24:02.127Z,16.44
2017-06-09T18:25:17.683Z,16.38
2017-06-09T18:26:33.198Z,16.49
2017-06-09T18:28:02.248Z,16.47
2017-06-09T18:29:17.977Z,16.49
2017-06-09T18:30:47.080Z,16.47
2017-06-09T18:32:02.555Z,16.57
2017-06-09T18:33:18.031Z,16.44
2017-06-09T18:34:33.941Z,16.47
2017-06-09T18:35:49.471Z,16.54
2017-06-09T18:37:04.950Z,16.54
2017-06-09T18:38:20.611Z,16.56
2017-06-09T18:39:36.286Z,16.54
2017-06-09T18:40:50.873Z,16.59
2017-06-09T18:42:06.327Z,16.51
2017-06-09T18:43:21.834Z,16.42
2017-06-09T18:44:36.095Z,16.61
2017-06-09T18:45:51.622Z,16.42
2017-06-09T18:47:07.132Z,16.5
2017-06-09T18:48:22.557Z,16.47
2017-06-09T18:49:38.489Z,16.46
2017-06-09T18:50:54.021Z,16.53
2017-06-09T18:52:09.528Z,16.44
2017-06-09T18:53:25.037Z,16.44
2017-06-09T18:54:40.897Z,16.5
2017-06-09T18:55:56.582Z,16.49
2017-06-09T18:57:12.000Z,16.54
2017-06-09T18:58:27.509Z,16.49
2017-06-09T18:59:43.279Z,16.49
2017-06-09T19:00:58.957Z,16.5
2017-06-09T19:02:14.415Z,16.53
2017-06-09T19:03:29.953Z,16.47
2017-06-09T19:04:45.730Z,16.38
2017-06-09T19:06:01.195Z,16.43
2017-06-09T19:07:16.693Z,16.42
2017-06-09T19:08:32.177Z,16.27
2017-06-09T19:09:47.853Z,16.44
2017-06-09T19:11:03.513Z,16.29
2017-06-09T19:12:18.631Z,16.32
2017-06-09T19:13:34.111Z,16.38
2017-06-09T19:14:49.823Z,16.24
2017-06-09T19:16:05.317Z,16.29
2017-06-09T19:17:20.827Z,16.11
2017-06-09T19:18:36.298Z,16.11
2017-06-09T19:19:51.683Z,16.02
2017-06-09T19:21:07.168Z,16.02
2017-06-09T19:22:22.645Z,16.02
2017-06-09T19:23:38.111Z,16.06
2017-06-09T19:24:53.820Z,15.94
2017-06-09T19:26:09.073Z,16.01
2017-06-09T19:27:22.001Z,15.99
2017-06-09T19:28:37.623Z,15.98
2017-06-09T19:29:53.346Z,16.02
2017-06-09T19:31:08.856Z,16.01
2017-06-09T19:32:24.296Z,15.95
2017-06-09T19:33:39.822Z,15.96
2017-06-09T19:34:55.643Z,15.98
2017-06-09T19:36:11.160Z,15.91
2017-06-09T19:37:26.634Z,15.95
2017-06-09T19:38:42.195Z,15.91
2017-06-09T19:39:57.879Z,15.92
2017-06-09T19:41:13.441Z,15.95
2017-06-09T19:42:28.904Z,15.96
2017-06-09T19:43:44.452Z,15.89
2017-06-09T19:45:00.258Z,15.95
2017-06-09T19:46:15.767Z,15.79
2017-06-09T19:47:31.262Z,15.84
2017-06-09T19:48:46.746Z,15.82
2017-06-09T19:50:02.522Z,15.8
2017-06-09T19:51:18.100Z,15.72
2017-06-09T19:52:33.586Z,15.8
2017-06-09T19:53:49.120Z,15.73
2017-06-09T19:55:04.936Z,15.72
2017-06-09T19:56:18.818Z,15.78
2017-06-09T19:57:34.367Z,15.78
2017-06-09T19:58:49.568Z,15.8
2017-06-09T20:00:05.448Z,15.75
2017-06-09T20:01:20.931Z,15.72
2017-06-09T20:02:35.138Z,15.76
2017-06-09T20:03:50.604Z,15.73
2017-06-09T20:06:35.245Z,15.69
2017-06-09T20:07:50.739Z,15.58
2017-06-09T20:09:06.392Z,15.64
2017-06-09T20:10:22.191Z,15.63
2017-06-09T20:11:37.743Z,15.61
2017-06-09T20:12:53.176Z,15.53
2017-06-09T20:14:08.827Z,15.5
2017-06-09T20:15:24.572Z,15.58
2017-06-09T20:16:40.101Z,15.57
2017-06-09T20:17:55.779Z,15.57
2017-06-09T20:19:11.239Z,15.57
2017-06-09T20:20:26.972Z,15.5
2017-06-09T20:21:42.450Z,15.43
2017-06-09T20:22:57.703Z,15.48
2017-06-09T20:24:13.290Z,15.4
2017-06-09T20:25:28.947Z,15.38
2017-06-09T20:26:44.651Z,15.33
2017-06-09T20:28:00.124Z,15.36
2017-06-09T20:29:15.632Z,15.39
2017-06-09T20:30:31.300Z,15.35
2017-06-09T20:31:45.444Z,15.2
2017-06-09T20:33:01.084Z,15.27
2017-06-09T20:34:15.212Z,15.32
2017-06-09T20:35:30.896Z,15.2
2017-06-09T20:36:46.063Z,15.17
2017-06-09T20:38:01.525Z,15.21
2017-06-09T20:39:16.920Z,15.25
2017-06-09T20:40:32.618Z,15.2
2017-06-09T20:41:48.096Z,15.18
2017-06-09T20:43:03.616Z,15.24
2017-06-09T20:44:19.129Z,15.21
2017-06-09T20:45:34.719Z,15.29
2017-06-09T20:46:50.423Z,15.24
2017-06-09T20:48:05.933Z,15.25
2017-06-09T20:49:21.400Z,15.25
2017-06-09T20:50:37.079Z,15.33
2017-06-09T20:51:52.658Z,15.27
2017-06-09T20:53:08.152Z,15.32
2017-06-09T20:54:23.635Z,15.33
2017-06-09T20:55:39.404Z,15.32
2017-06-09T20:56:53.587Z,15.36
2017-06-09T20:58:09.171Z,15.33
2017-06-09T20:59:24.674Z,15.36
2017-06-09T21:00:40.395Z,15.36
2017-06-09T21:01:55.900Z,15.39
2017-06-09T21:03:11.411Z,15.39
2017-06-09T21:04:26.842Z,15.4
2017-06-09T21:05:42.543Z,15.43
2017-06-09T21:06:58.101Z,15.42
2017-06-09T21:08:13.584Z,15.38
2017-06-09T21:09:29.033Z,15.3
2017-06-09T21:10:44.795Z,15.3
2017-06-09T21:12:00.281Z,15.32
2017-06-09T21:13:15.793Z,15.3
2017-06-09T21:14:31.374Z,15.25
2017-06-09T21:15:47.066Z,15.27
2017-06-09T21:17:02.493Z,15.29
2017-06-09T21:18:16.639Z,15.25
2017-06-09T21:19:32.156Z,15.35
2017-06-09T21:20:47.803Z,15.18
2017-06-09T21:22:02.032Z,15.24
2017-06-09T21:23:17.527Z,15.25
2017-06-09T21:24:33.037Z,15.33
2017-06-09T21:25:47.439Z,15.35
2017-06-09T21:27:02.977Z,15.35
2017-06-09T21:28:18.494Z,15.35
2017-06-09T21:29:33.988Z,15.32
2017-06-09T21:30:48.323Z,15.39
2017-06-09T21:32:03.848Z,15.3
2017-06-09T21:33:19.335Z,15.25
2017-06-09T21:34:34.802Z,15.27
2017-06-09T21:35:50.564Z,15.27
2017-06-09T21:37:06.086Z,15.24
2017-06-09T21:38:21.589Z,15.27
2017-06-09T21:39:37.261Z,15.27
2017-06-09T21:40:52.938Z,15.23
2017-06-09T21:42:08.413Z,15.24
2017-06-09T21:43:22.472Z,15.21
2017-06-09T21:44:36.621Z,15.2
2017-06-09T21:45:50.803Z,15.33
2017-06-09T21:47:06.506Z,15.32
2017-06-09T21:48:21.946Z,15.2
2017-06-09T21:49:37.415Z,15.23
2017-06-09T21:50:52.598Z,15.2
2017-06-09T21:52:08.246Z,15.24
2017-06-09T21:53:23.775Z,15.24
2017-06-09T21:54:39.216Z,15.23
2017-06-09T21:55:54.688Z,15.15
2017-06-09T21:57:10.305Z,15.15
2017-06-09T21:58:25.763Z,15.06
2017-06-09T21:59:41.164Z,15.09
2017-06-09T22:00:54.023Z,15.13
2017-06-09T22:02:08.236Z,15.13
2017-06-09T22:03:23.975Z,15.09
2017-06-09T22:04:39.416Z,15.13
2017-06-09T22:05:55.162Z,15.06
2017-06-09T22:07:11.046Z,15.02
2017-06-09T22:08:26.469Z,15.06
2017-06-09T22:09:40.537Z,15.11
2017-06-09T22:10:56.115Z,15.06
2017-06-09T22:12:11.843Z,14.95
2017-06-09T22:13:26.991Z,15.03
2017-06-09T22:14:42.491Z,14.96
2017-06-09T22:15:58.108Z,14.98
2017-06-09T22:17:13.750Z,14.87
2017-06-09T22:18:29.230Z,14.93
2017-06-09T22:19:44.656Z,14.83
2017-06-09T22:21:00.134Z,14.83
2017-06-09T22:22:16.032Z,14.78
2017-06-09T22:23:31.531Z,14.77
2017-06-09T22:24:47.022Z,14.75
2017-06-09T22:26:02.480Z,14.72
2017-06-09T22:27:18.194Z,14.72
2017-06-09T22:28:32.255Z,14.72
2017-06-09T22:29:47.763Z,14.75
2017-06-09T22:31:03.194Z,14.67
2017-06-09T22:32:18.912Z,14.7
2017-06-09T22:33:33.261Z,14.67
2017-06-09T22:34:48.759Z,14.65
2017-06-09T22:36:04.275Z,14.72
2017-06-09T22:37:19.908Z,14.69
2017-06-09T22:38:34.247Z,14.63
2017-06-09T22:39:49.737Z,14.66
2017-06-09T22:41:05.189Z,14.65
2017-06-09T22:42:20.873Z,14.52
2017-06-09T22:43:35.011Z,14.58
2017-06-09T22:44:50.569Z,14.59
2017-06-09T22:46:06.062Z,14.52
2017-06-09T22:47:33.980Z,14.58
2017-06-09T22:48:49.445Z,14.56
2017-06-09T22:50:03.612Z,14.51
2017-06-09T22:51:19.092Z,14.52
2017-06-09T22:52:32.280Z,14.58
2017-06-09T22:53:47.796Z,14.54
2017-06-09T22:55:03.339Z,14.52
2017-06-09T22:56:18.791Z,14.5
2017-06-09T22:57:34.418Z,14.51
2017-06-09T22:58:50.037Z,14.52
2017-06-09T23:00:06.064Z,14.54
2017-06-09T23:01:21.542Z,14.56
2017-06-09T23:02:37.174Z,14.54
2017-06-09T23:03:52.281Z,14.51
2017-06-09T23:05:07.789Z,14.56
2017-06-09T23:06:23.318Z,14.51
2017-06-09T23:07:38.999Z,14.5
2017-06-09T23:08:54.462Z,14.36
2017-06-09T23:10:09.969Z,14.37
2017-06-09T23:11:25.631Z,14.39
2017-06-09T23:12:41.215Z,14.37
2017-06-09T23:13:56.665Z,14.25
2017-06-09T23:15:10.934Z,14.24
2017-06-09T23:16:25.182Z,14.19
2017-06-09T23:17:39.394Z,14.19
2017-06-09T23:18:54.866Z,14.18
2017-06-09T23:20:10.341Z,14.13
2017-06-09T23:21:25.939Z,14.13
2017-06-09T23:22:40.085Z,14.16
2017-06-09T23:23:55.534Z,14.16
2017-06-09T23:25:09.559Z,14.19
2017-06-09T23:26:25.002Z,14.14
2017-06-09T23:27:40.655Z,14.09
2017-06-09T23:28:56.152Z,14.13
2017-06-09T23:30:11.643Z,14.09
2017-06-09T23:31:27.141Z,14.14
2017-06-09T23:32:42.748Z,14.06
2017-06-09T23:33:58.232Z,14.03
2017-06-09T23:35:12.260Z,14.09
2017-06-09T23:36:27.750Z,14.03
2017-06-09T23:37:43.382Z,14
2017-06-09T23:38:58.814Z,14
2017-06-09T23:40:14.329Z,14.02
2017-06-09T23:41:29.799Z,14.04
2017-06-09T23:42:45.442Z,13.99
2017-06-09T23:44:01.004Z,14.02
2017-06-09T23:45:16.498Z,13.91
2017-06-09T23:46:31.973Z,14.04
2017-06-09T23:47:47.593Z,14
2017-06-09T23:49:03.096Z,13.84
2017-06-09T23:50:18.534Z,13.94
2017-06-09T23:51:34.219Z,13.82
2017-06-09T23:52:50.054Z,13.86
2017-06-09T23:54:05.721Z,13.82
2017-06-09T23:55:21.214Z,13.81
2017-06-09T23:56:36.732Z,13.79
2017-06-09T23:57:51.099Z,13.84
2017-06-09T23:59:06.596Z,13.86
